Time;durP1;ratioP1;P1;durP2;ratioP2;P2;SDS_P1;SDS_P2;PMS_P1;PMS_P2;Temp;Humidity;BMP_temperature;BMP_pressure;BME280_temperature;BME280_humidity;BME280_pressure;Samples;Min_cycle;Max_cycle;Signal;HPM_P1;HPM_P2
2021/12/05 00:23:24;;;;;;;1.97;1.50;;;4.00;99.90;;;;;;4995404;28;20509;-67
2021/12/05 00:25:53;;;;;;;3.93;1.70;;;4.00;99.90;;;;;;4984548;28;20457;-66
2021/12/05 00:33:47;;;;;;;5.13;1.80;;;4.00;99.90;;;;;;5010350;28;20430;-68
2021/12/05 00:57:39;;;;;;;7.83;2.60;;;3.80;99.90;;;;;;5009095;28;20446;-67
2021/12/05 01:00:29;;;;;;;2.90;1.57;;;3.90;99.90;;;;;;4988685;28;20473;-66
2021/12/05 01:14:06;;;;;;;7.10;1.70;;;3.70;99.90;;;;;;5000403;28;20777;-66
2021/12/05 01:16:32;;;;;;;1.67;1.53;;;3.70;99.90;;;;;;4995757;28;20944;-66
2021/12/05 01:18:58;;;;;;;2.13;1.33;;;3.70;99.90;;;;;;4995327;28;20469;-69
2021/12/05 01:21:25;;;;;;;3.77;1.47;;;3.70;99.90;;;;;;4996877;28;20537;-66
2021/12/05 01:24:13;;;;;;;3.00;1.40;;;3.70;99.90;;;;;;4996499;28;20183;-66
2021/12/05 01:37:06;;;;;;;3.07;1.60;;;3.60;99.90;;;;;;5005824;28;20454;-67
2021/12/05 01:39:46;;;;;;;2.40;1.67;;;3.50;99.90;;;;;;4994668;28;20203;-66
2021/12/05 02:09:19;;;;;;;3.23;1.70;;;3.50;99.90;;;;;;4994117;28;20439;-66
2021/12/05 02:12:06;;;;;;;2.20;1.80;;;3.50;99.90;;;;;;4993885;28;20840;-66
2021/12/05 02:31:34;;;;;;;5.30;1.80;;;3.40;99.90;;;;;;4997992;28;20441;-67
2021/12/05 02:39:35;;;;;;;3.23;1.80;;;3.30;99.90;;;;;;4952891;28;20460;-67
2021/12/05 02:42:09;;;;;;;3.03;1.40;;;3.30;99.90;;;;;;4999102;28;20772;-66
2021/12/05 02:44:38;;;;;;;4.67;2.60;;;3.30;99.90;;;;;;4993665;28;20442;-67
2021/12/05 02:47:12;;;;;;;2.30;1.70;;;3.30;99.90;;;;;;4996644;28;20830;-66
2021/12/05 02:49:41;;;;;;;3.33;2.20;;;3.40;99.90;;;;;;4994575;28;20504;-66
2021/12/05 02:52:10;;;;;;;3.03;1.90;;;3.40;99.90;;;;;;4998244;28;20916;-67
2021/12/05 02:54:44;;;;;;;6.87;2.53;;;3.40;99.90;;;;;;5002947;28;20442;-66
2021/12/05 02:57:10;;;;;;;2.90;1.67;;;3.40;99.90;;;;;;4996024;28;20454;-67
2021/12/05 03:02:07;;;;;;;4.40;1.60;;;3.40;99.90;;;;;;4994652;28;20505;-66
2021/12/05 03:04:35;;;;;;;7.40;1.77;;;3.50;99.90;;;;;;4998044;28;20176;-67
2021/12/05 03:07:06;;;;;;;4.40;1.80;;;3.50;99.90;;;;;;4990684;28;21046;-66
2021/12/05 03:09:31;;;;;;;2.60;1.53;;;3.50;99.90;;;;;;4993948;28;20529;-67
2021/12/05 03:11:58;;;;;;;2.93;1.53;;;3.40;99.90;;;;;;5004100;28;20516;-66
2021/12/05 03:14:24;;;;;;;2.00;1.27;;;3.50;99.90;;;;;;4997949;28;20923;-66
2021/12/05 03:16:50;;;;;;;4.70;1.63;;;3.50;99.90;;;;;;5006647;28;20533;-66
2021/12/05 03:19:17;;;;;;;3.50;2.70;;;3.60;99.90;;;;;;5002996;28;20704;-67
2021/12/05 03:21:44;;;;;;;3.40;1.47;;;3.60;99.90;;;;;;4992319;28;20441;-67
2021/12/05 03:24:11;;;;;;;6.50;1.90;;;3.60;99.90;;;;;;4995806;28;20430;-67
2021/12/05 03:26:40;;;;;;;1.43;1.30;;;3.60;99.90;;;;;;4995743;28;20502;-66
2021/12/05 03:29:08;;;;;;;3.53;1.70;;;3.60;99.90;;;;;;5008975;28;20434;-67
2021/12/05 03:31:35;;;;;;;3.37;1.93;;;3.60;99.90;;;;;;4993114;28;20854;-68
2021/12/05 03:34:02;;;;;;;9.67;2.00;;;3.60;99.90;;;;;;5000410;28;20441;-67
2021/12/05 03:36:28;;;;;;;2.50;1.50;;;3.60;99.90;;;;;;5000071;28;20501;-66
2021/12/05 03:38:54;;;;;;;4.97;2.13;;;3.60;99.90;;;;;;5001385;28;20920;-66
2021/12/05 03:41:20;;;;;;;6.17;2.17;;;3.60;99.90;;;;;;4992999;28;20234;-67
2021/12/05 03:43:48;;;;;;;4.97;1.07;;;3.50;99.90;;;;;;4992764;28;20438;-67
2021/12/05 03:46:15;;;;;;;4.80;1.80;;;3.50;99.90;;;;;;5000930;28;20260;-66
2021/12/05 03:48:48;;;;;;;4.60;1.90;;;3.50;99.90;;;;;;4992418;28;20521;-67
2021/12/05 03:51:16;;;;;;;3.67;1.40;;;3.50;99.90;;;;;;5004457;28;20799;-68
2021/12/05 03:53:42;;;;;;;2.53;1.70;;;3.40;99.90;;;;;;5004077;28;20556;-68
2021/12/05 03:56:09;;;;;;;6.63;2.27;;;3.40;99.90;;;;;;4991836;28;20545;-66
2021/12/05 03:58:36;;;;;;;5.50;1.57;;;3.40;99.90;;;;;;4991979;28;20188;-66
2021/12/05 04:01:08;;;;;;;4.63;1.67;;;3.40;99.90;;;;;;4992331;28;20466;-71
2021/12/05 04:03:35;;;;;;;2.90;1.60;;;3.40;99.90;;;;;;4992304;28;20441;-66
2021/12/05 04:06:04;;;;;;;3.83;1.73;;;3.30;99.90;;;;;;5003322;28;20480;-68
2021/12/05 04:08:30;;;;;;;1.83;1.60;;;3.30;99.90;;;;;;4998532;28;20442;-66
2021/12/05 04:11:04;;;;;;;5.70;2.30;;;3.40;99.90;;;;;;4992235;28;20438;-67
2021/12/05 04:13:31;;;;;;;3.10;1.60;;;3.40;99.90;;;;;;5005599;28;20518;-67
2021/12/05 04:16:00;;;;;;;3.37;1.43;;;3.30;99.90;;;;;;4992102;28;20569;-66
2021/12/05 04:18:25;;;;;;;3.30;2.00;;;3.30;99.90;;;;;;4999822;28;20434;-66
2021/12/05 04:20:51;;;;;;;2.30;1.43;;;3.30;99.90;;;;;;5008815;28;20492;-66
2021/12/05 04:23:17;;;;;;;5.80;2.20;;;3.20;99.90;;;;;;4996774;28;20655;-67
2021/12/05 04:25:42;;;;;;;6.13;1.77;;;3.30;99.90;;;;;;4994730;28;20211;-68
2021/12/05 04:28:12;;;;;;;2.47;1.33;;;3.30;99.90;;;;;;4992157;28;20218;-67
2021/12/05 04:30:38;;;;;;;8.20;2.03;;;3.30;99.90;;;;;;4994515;28;20238;-66
2021/12/05 04:33:04;;;;;;;2.90;1.50;;;3.30;99.90;;;;;;5002099;28;20935;-67
2021/12/05 04:35:30;;;;;;;2.60;1.97;;;3.30;99.90;;;;;;5000208;28;20656;-67
2021/12/05 04:37:55;;;;;;;4.10;1.60;;;3.40;99.90;;;;;;4992018;28;20473;-67
2021/12/05 04:40:21;;;;;;;2.90;1.60;;;3.40;99.90;;;;;;4998815;28;20277;-67
2021/12/05 04:42:48;;;;;;;3.20;1.30;;;3.30;99.90;;;;;;5002049;28;20650;-67
2021/12/05 04:45:20;;;;;;;2.67;1.30;;;3.40;99.90;;;;;;4996399;28;20540;-67
2021/12/05 04:47:46;;;;;;;6.27;1.80;;;3.40;99.90;;;;;;4992911;28;20469;-66
2021/12/05 04:50:13;;;;;;;4.47;2.07;;;3.40;99.90;;;;;;5002101;28;20924;-66
2021/12/05 04:52:39;;;;;;;1.73;1.53;;;3.40;99.90;;;;;;4990670;28;20187;-66
2021/12/05 04:55:06;;;;;;;4.03;1.83;;;3.30;99.90;;;;;;4994159;28;20518;-67
2021/12/05 04:57:32;;;;;;;1.77;1.40;;;3.30;99.90;;;;;;4993616;28;20632;-66
2021/12/05 04:59:57;;;;;;;3.77;1.60;;;3.20;99.90;;;;;;4992568;28;20545;-69
2021/12/05 05:02:23;;;;;;;1.30;1.20;;;3.10;99.90;;;;;;4996129;28;20179;-66
2021/12/05 05:04:50;;;;;;;2.03;1.60;;;3.10;99.90;;;;;;4992577;28;20645;-66
2021/12/05 05:07:26;;;;;;;2.27;1.70;;;3.00;99.90;;;;;;4992702;28;20206;-66
2021/12/05 05:09:56;;;;;;;2.50;1.40;;;2.90;99.90;;;;;;5001498;28;20477;-66
2021/12/05 05:12:22;;;;;;;4.07;1.60;;;2.80;99.90;;;;;;4998149;28;20429;-66
2021/12/05 05:14:48;;;;;;;4.13;1.50;;;2.70;99.90;;;;;;5005393;28;20430;-66
2021/12/05 05:17:13;;;;;;;5.53;1.60;;;2.70;99.90;;;;;;4996248;28;20458;-66
2021/12/05 05:19:48;;;;;;;2.70;1.60;;;2.80;99.90;;;;;;4994687;28;20215;-69
2021/12/05 05:30:32;;;;;;;5.53;1.90;;;2.70;99.90;;;;;;5005194;28;20437;-70
2021/12/05 05:39:10;;;;;;;2.13;1.93;;;2.70;99.90;;;;;;4983482;28;20471;-70
2021/12/05 05:44:28;;;;;;;1.63;1.40;;;2.50;99.90;;;;;;5003905;28;20437;-70
2021/12/05 05:46:59;;;;;;;3.27;2.10;;;2.40;99.90;;;;;;5007555;28;20453;-70
2021/12/05 05:52:08;;;;;;;3.73;1.40;;;2.30;99.90;;;;;;5014431;28;20986;-71
2021/12/05 05:54:34;;;;;;;9.57;1.70;;;2.30;99.90;;;;;;5002144;28;20434;-70
2021/12/05 05:57:10;;;;;;;2.90;1.60;;;2.30;99.90;;;;;;5010582;28;20214;-70
2021/12/05 05:59:47;;;;;;;2.83;1.40;;;2.30;99.90;;;;;;4994491;28;20206;-70
2021/12/05 06:04:41;;;;;;;2.87;1.50;;;2.20;99.90;;;;;;5008395;28;20433;-68
2021/12/05 06:07:08;;;;;;;1.67;1.30;;;2.20;99.90;;;;;;4996868;28;20530;-70
2021/12/05 06:09:33;;;;;;;4.20;0.93;;;2.20;99.90;;;;;;5006530;28;20234;-71
2021/12/05 06:11:59;;;;;;;3.27;1.60;;;2.20;99.90;;;;;;5004571;28;20433;-71
2021/12/05 06:14:26;;;;;;;1.50;1.20;;;2.20;99.90;;;;;;5001447;28;20175;-71
2021/12/05 06:16:52;;;;;;;2.40;1.43;;;2.20;99.90;;;;;;4999903;28;20541;-71
2021/12/05 06:19:17;;;;;;;1.43;1.23;;;2.20;99.90;;;;;;4997130;28;20581;-70
2021/12/05 06:21:43;;;;;;;3.17;1.57;;;2.20;99.90;;;;;;5001333;28;20260;-71
2021/12/05 06:24:09;;;;;;;6.30;1.50;;;2.10;99.90;;;;;;4999542;28;20647;-70
2021/12/05 06:26:35;;;;;;;7.07;2.03;;;2.10;99.90;;;;;;5000640;28;20211;-68
2021/12/05 06:29:20;;;;;;;3.50;2.03;;;2.10;99.90;;;;;;4999491;28;20663;-70
2021/12/05 06:40:04;;;;;;;1.87;1.67;;;2.10;99.90;;;;;;5006835;28;20461;-71
2021/12/05 06:47:42;;;;;;;1.57;1.47;;;2.10;99.90;;;;;;5008320;28;20496;-70
2021/12/05 06:50:08;;;;;;;2.40;1.60;;;2.10;99.90;;;;;;5006888;28;20939;-70
2021/12/05 06:52:33;;;;;;;2.60;1.60;;;2.00;99.90;;;;;;5007922;28;20713;-71
2021/12/05 06:54:59;;;;;;;6.93;1.63;;;2.00;99.90;;;;;;4994552;28;20241;-68
2021/12/05 06:57:24;;;;;;;4.07;1.90;;;2.00;99.90;;;;;;5004787;28;20240;-71
2021/12/05 06:59:50;;;;;;;9.67;2.00;;;2.00;99.90;;;;;;5009793;28;20203;-70
2021/12/05 07:02:19;;;;;;;3.90;1.40;;;2.00;99.90;;;;;;4993408;28;20665;-70
2021/12/05 07:07:21;;;;;;;2.07;1.50;;;2.00;99.90;;;;;;4994806;28;20794;-71
2021/12/05 07:09:48;;;;;;;2.23;1.20;;;2.00;99.90;;;;;;5007029;28;20521;-70
2021/12/05 07:22:50;;;;;;;2.23;1.70;;;2.10;99.90;;;;;;5009103;28;20434;-70
2021/12/05 07:42:04;;;;;;;5.43;1.57;;;2.30;99.90;;;;;;5001679;28;20449;-70
2021/12/05 07:44:30;;;;;;;1.77;1.20;;;2.30;99.90;;;;;;4996842;28;20434;-71
2021/12/05 07:46:56;;;;;;;4.50;1.47;;;2.30;99.90;;;;;;4999735;28;20604;-71
2021/12/05 07:49:22;;;;;;;2.40;1.60;;;2.40;99.90;;;;;;5007917;28;20441;-71
2021/12/05 07:51:49;;;;;;;2.97;1.70;;;2.50;99.90;;;;;;5000213;28;20438;-70
2021/12/05 07:54:37;;;;;;;3.87;2.33;;;2.60;99.90;;;;;;4997282;28;20227;-70
2021/12/05 08:16:07;;;;;;;2.77;2.20;;;7.70;99.90;;;;;;4991378;28;20819;-71
2021/12/05 08:18:32;;;;;;;3.83;2.53;;;7.90;99.90;;;;;;4990341;28;20439;-70
2021/12/05 08:21:00;;;;;;;3.13;2.30;;;8.10;99.90;;;;;;4989605;28;20567;-70
2021/12/05 08:23:26;;;;;;;2.80;2.60;;;8.50;99.90;;;;;;4989674;28;20262;-71
2021/12/05 08:26:17;;;;;;;3.97;2.90;;;9.00;99.90;;;;;;4992452;28;20469;-71
2021/12/05 08:34:50;;;;;;;3.20;2.30;;;9.50;99.90;;;;;;4976648;28;20810;-70
2021/12/05 08:40:40;;;;;;;9.23;3.70;;;9.80;99.90;;;;;;4991941;28;20477;-68
2021/12/05 09:08:45;;;;;;;3.07;2.03;;;7.70;99.90;;;;;;4998775;28;20508;-70
2021/12/05 10:15:44;;;;;;;1.50;1.30;;;18.10;90.70;;;;;;4994179;28;20438;-71
2021/12/05 10:35:22;;;;;;;1.60;1.50;;;11.60;99.90;;;;;;4978100;28;20465;-69
2021/12/05 10:38:09;;;;;;;3.60;1.30;;;13.60;99.90;;;;;;5000122;28;20468;-70
2021/12/05 10:40:44;;;;;;;1.30;1.17;;;14.60;96.80;;;;;;4990681;28;20458;-69
2021/12/05 10:43:19;;;;;;;2.87;1.60;;;15.10;95.60;;;;;;4981925;28;20429;-71
2021/12/05 10:45:51;;;;;;;2.77;1.50;;;15.80;93.90;;;;;;4991793;28;20457;-70
2021/12/05 10:48:42;;;;;;;2.70;1.60;;;15.30;93.30;;;;;;5000199;28;20438;-70
2021/12/05 10:51:25;;;;;;;1.93;1.50;;;15.90;93.40;;;;;;4981625;28;20436;-70
2021/12/05 10:53:55;;;;;;;1.83;1.63;;;17.60;90.40;;;;;;5002587;28;20438;-70
2021/12/05 10:56:25;;;;;;;1.83;1.60;;;19.40;83.90;;;;;;4994246;28;20528;-70
2021/12/05 10:59:03;;;;;;;2.30;1.53;;;18.20;82.10;;;;;;4997865;28;20438;-68
2021/12/05 11:01:38;;;;;;;2.57;1.17;;;16.40;86.00;;;;;;4994611;28;20505;-69
2021/12/05 11:04:11;;;;;;;3.60;2.43;;;14.20;91.20;;;;;;4993404;28;20434;-69
2021/12/05 11:06:52;;;;;;;1.30;1.20;;;14.50;91.30;;;;;;4993135;28;20975;-69
2021/12/05 11:09:43;;;;;;;2.33;2.03;;;15.30;90.60;;;;;;4994151;28;20537;-70
2021/12/05 11:12:31;;;;;;;3.23;1.80;;;14.40;91.20;;;;;;4993385;28;20458;-69
2021/12/05 11:15:09;;;;;;;3.30;2.00;;;13.50;92.80;;;;;;4992924;28;20430;-69
2021/12/05 11:17:39;;;;;;;6.13;2.90;;;13.20;93.80;;;;;;4994160;28;20454;-68
2021/12/05 11:20:13;;;;;;;1.60;1.50;;;13.40;95.10;;;;;;4994957;28;20470;-69
2021/12/05 11:22:50;;;;;;;2.97;2.43;;;14.80;92.70;;;;;;5005902;28;20489;-68
2021/12/05 11:25:38;;;;;;;2.27;1.00;;;16.20;90.30;;;;;;4994042;28;20436;-69
2021/12/05 11:28:08;;;;;;;1.70;1.60;;;15.60;88.50;;;;;;4990978;28;20521;-69
2021/12/05 11:30:36;;;;;;;2.03;1.20;;;14.30;91.30;;;;;;4978368;28;20497;-68
2021/12/05 11:33:21;;;;;;;1.67;1.10;;;13.30;92.80;;;;;;5006114;28;20438;-69
2021/12/05 11:35:55;;;;;;;1.73;1.30;;;13.10;94.20;;;;;;4999614;28;20578;-68
2021/12/05 11:38:26;;;;;;;4.57;2.20;;;13.40;93.60;;;;;;4985086;28;20613;-69
2021/12/05 11:40:59;;;;;;;2.57;2.27;;;13.20;93.80;;;;;;4989564;28;20975;-70
2021/12/05 11:43:31;;;;;;;2.07;1.40;;;12.10;95.30;;;;;;4987591;28;20442;-69
2021/12/05 11:46:24;;;;;;;2.73;1.60;;;11.20;97.20;;;;;;4992107;28;20548;-69
2021/12/05 11:48:53;;;;;;;1.73;1.63;;;10.50;99.70;;;;;;4990712;28;20848;-69
2021/12/05 11:51:22;;;;;;;4.50;1.40;;;9.70;99.90;;;;;;5000112;28;20927;-69
2021/12/05 11:54:19;;;;;;;1.93;1.33;;;9.40;99.90;;;;;;4991145;28;20801;-69
2021/12/05 11:57:17;;;;;;;1.40;1.20;;;10.10;99.90;;;;;;4972307;28;20470;-69
2021/12/05 11:59:56;;;;;;;9.10;5.70;;;10.30;99.90;;;;;;4988719;28;20462;-69
2021/12/05 12:02:34;;;;;;;1.63;1.43;;;10.40;99.90;;;;;;4990916;28;20430;-70
2021/12/05 12:05:13;;;;;;;2.73;1.90;;;11.80;99.90;;;;;;4989101;28;20442;-71
2021/12/05 12:07:49;;;;;;;1.50;1.40;;;13.50;99.90;;;;;;4991246;28;20483;-70
2021/12/05 12:10:27;;;;;;;1.40;1.30;;;14.30;97.60;;;;;;4988897;28;20449;-68
2021/12/05 12:12:52;;;;;;;2.53;1.97;;;15.00;95.90;;;;;;4992016;28;20604;-70
2021/12/05 12:15:20;;;;;;;2.43;1.47;;;16.30;93.00;;;;;;4988797;28;21007;-70
2021/12/05 12:17:48;;;;;;;1.53;1.37;;;16.90;90.60;;;;;;4995281;28;20253;-71
2021/12/05 12:20:19;;;;;;;1.80;1.70;;;16.60;90.30;;;;;;4997556;28;20960;-71
2021/12/05 12:22:44;;;;;;;2.90;1.70;;;15.80;90.70;;;;;;5001296;28;20431;-70
2021/12/05 12:25:15;;;;;;;2.33;1.63;;;15.80;91.20;;;;;;4995320;28;20441;-71
2021/12/05 12:27:42;;;;;;;1.43;1.30;;;14.20;91.90;;;;;;4996258;28;20242;-71
2021/12/05 12:30:10;;;;;;;2.20;2.03;;;12.30;94.80;;;;;;4998888;28;20849;-70
2021/12/05 12:32:40;;;;;;;1.97;1.67;;;10.80;99.00;;;;;;4998119;28;20488;-70
2021/12/05 12:35:18;;;;;;;3.80;2.10;;;9.90;99.90;;;;;;4994304;28;20444;-69
2021/12/05 12:37:56;;;;;;;3.50;2.63;;;9.30;99.90;;;;;;5000061;28;20472;-70
2021/12/05 12:40:53;;;;;;;3.80;3.50;;;8.80;99.90;;;;;;4994163;28;20466;-70
2021/12/05 12:43:55;;;;;;;4.83;1.80;;;9.50;99.90;;;;;;4980098;28;20525;-71
2021/12/05 12:46:42;;;;;;;3.00;1.77;;;10.40;99.90;;;;;;4990503;28;21034;-71
2021/12/05 12:49:16;;;;;;;2.17;1.93;;;12.00;99.90;;;;;;4998202;28;20488;-69
2021/12/05 12:51:59;;;;;;;3.13;1.10;;;12.70;99.10;;;;;;4992248;28;20418;-71
2021/12/05 12:54:34;;;;;;;2.53;1.63;;;12.10;98.50;;;;;;4994051;28;20426;-67
2021/12/05 12:57:15;;;;;;;5.00;3.57;;;11.90;99.20;;;;;;4997482;28;20446;-69
2021/12/05 12:59:53;;;;;;;2.10;1.90;;;11.80;99.20;;;;;;4999550;28;20485;-69
2021/12/05 13:02:36;;;;;;;2.13;1.40;;;11.00;99.90;;;;;;4997684;28;20426;-70
2021/12/05 13:05:24;;;;;;;1.57;1.47;;;10.10;99.90;;;;;;4994960;28;20446;-70
2021/12/05 13:10:44;;;;;;;3.30;1.50;;;11.20;99.90;;;;;;4980315;28;20429;-70
2021/12/05 13:13:17;;;;;;;2.20;1.47;;;10.90;99.90;;;;;;4995668;28;20435;-70
2021/12/05 13:15:59;;;;;;;5.17;1.80;;;9.90;99.90;;;;;;4992763;28;20453;-70
2021/12/05 13:18:29;;;;;;;5.70;3.43;;;9.20;99.90;;;;;;4994221;28;20434;-69
2021/12/05 13:21:03;;;;;;;3.40;2.17;;;8.90;99.90;;;;;;4983383;28;20466;-69
2021/12/05 13:23:46;;;;;;;2.20;1.20;;;10.10;99.90;;;;;;4983680;28;20789;-69
2021/12/05 13:26:30;;;;;;;1.47;1.37;;;10.40;99.90;;;;;;4985609;28;20470;-69
2021/12/05 13:29:21;;;;;;;1.70;1.57;;;9.90;99.90;;;;;;4982594;28;20446;-69
2021/12/05 13:32:02;;;;;;;1.93;1.40;;;8.90;99.90;;;;;;4977895;28;20443;-70
2021/12/05 13:34:33;;;;;;;1.53;0.90;;;8.20;99.90;;;;;;4981169;28;20443;-69
2021/12/05 13:37:05;;;;;;;1.40;1.20;;;7.90;99.90;;;;;;4991274;28;20451;-69
2021/12/05 13:39:39;;;;;;;1.53;1.40;;;8.00;99.90;;;;;;4989746;28;20431;-67
2021/12/05 13:42:22;;;;;;;2.13;1.40;;;7.90;99.90;;;;;;4991816;28;20931;-68
2021/12/05 13:45:02;;;;;;;1.70;1.60;;;7.60;99.90;;;;;;4982266;28;20439;-69
2021/12/05 13:47:51;;;;;;;1.53;1.20;;;7.40;99.90;;;;;;4985685;28;20456;-69
2021/12/05 13:50:23;;;;;;;1.70;1.20;;;7.10;99.90;;;;;;4987459;28;20929;-69
2021/12/05 13:53:07;;;;;;;0.80;0.80;;;6.90;99.90;;;;;;4982219;28;20834;-69
2021/12/05 13:55:51;;;;;;;2.30;1.37;;;6.80;99.90;;;;;;4984631;28;20442;-69
2021/12/05 13:58:45;;;;;;;2.30;1.60;;;6.90;99.90;;;;;;4981278;28;20442;-69
2021/12/05 14:01:23;;;;;;;5.40;3.93;;;6.90;99.90;;;;;;4988241;28;20975;-69
2021/12/05 14:04:09;;;;;;;4.60;4.13;;;6.80;99.90;;;;;;4982403;28;20529;-69
2021/12/05 14:06:52;;;;;;;3.03;2.40;;;6.80;99.90;;;;;;4982415;28;20463;-67
2021/12/05 14:09:23;;;;;;;1.53;1.30;;;7.00;99.90;;;;;;4986903;28;20434;-70
2021/12/05 14:11:57;;;;;;;2.27;2.07;;;7.10;99.90;;;;;;4989280;28;20435;-69
2021/12/05 14:14:27;;;;;;;3.03;1.90;;;7.10;99.90;;;;;;4989853;28;20972;-69
2021/12/05 14:16:55;;;;;;;2.50;2.30;;;7.00;99.90;;;;;;4986888;28;20533;-68
2021/12/05 14:19:25;;;;;;;4.10;1.50;;;7.00;99.90;;;;;;4988519;28;20510;-69
2021/12/05 14:21:54;;;;;;;2.93;1.80;;;7.10;99.90;;;;;;4986599;28;20982;-69
2021/12/05 14:24:23;;;;;;;2.27;1.80;;;7.10;99.90;;;;;;4988449;28;20414;-70
2021/12/05 14:26:51;;;;;;;1.53;1.43;;;7.20;99.90;;;;;;4988403;28;20454;-69
2021/12/05 14:29:20;;;;;;;2.17;1.67;;;7.20;99.90;;;;;;4985653;28;20968;-69
2021/12/05 14:31:58;;;;;;;1.70;1.60;;;7.10;99.90;;;;;;4989887;28;20426;-69
2021/12/05 14:34:24;;;;;;;1.93;1.77;;;7.00;99.90;;;;;;4961277;28;20438;-67
2021/12/05 14:37:15;;;;;;;3.93;1.57;;;6.80;99.90;;;;;;4971343;28;20558;-69
2021/12/05 14:39:51;;;;;;;1.93;1.83;;;6.80;99.90;;;;;;4990151;28;20469;-69
2021/12/05 14:42:22;;;;;;;5.63;2.47;;;6.70;99.90;;;;;;5005951;28;20435;-68
2021/12/05 14:44:52;;;;;;;5.50;2.60;;;6.70;99.90;;;;;;4984137;28;20427;-69
2021/12/05 14:47:21;;;;;;;6.03;3.00;;;6.50;99.90;;;;;;4990610;28;20464;-68
2021/12/05 14:49:51;;;;;;;3.30;2.47;;;6.20;99.90;;;;;;5007824;28;20525;-68
2021/12/05 14:52:24;;;;;;;2.40;1.80;;;6.10;99.90;;;;;;4999378;28;20437;-69
2021/12/05 14:54:50;;;;;;;4.10;1.30;;;6.00;99.90;;;;;;5000006;28;20433;-69
2021/12/05 14:57:17;;;;;;;1.87;1.67;;;5.90;99.90;;;;;;4993505;28;20450;-69
2021/12/05 14:59:45;;;;;;;2.40;1.83;;;5.80;99.90;;;;;;4993574;28;20465;-69
2021/12/05 15:02:12;;;;;;;2.77;1.90;;;5.80;99.90;;;;;;5000427;28;20442;-68
2021/12/05 15:04:45;;;;;;;4.07;2.23;;;5.80;99.90;;;;;;5000297;28;20441;-69
2021/12/05 15:07:11;;;;;;;2.97;2.60;;;5.80;99.90;;;;;;5007857;28;20485;-67
2021/12/05 15:09:46;;;;;;;11.70;6.70;;;5.70;99.90;;;;;;4994467;28;20488;-66
2021/12/05 15:12:16;;;;;;;2.50;2.10;;;5.70;99.90;;;;;;4994794;28;20433;-68
2021/12/05 15:14:44;;;;;;;5.43;3.20;;;5.70;99.90;;;;;;4994729;28;20461;-69
2021/12/05 15:17:16;;;;;;;3.77;2.97;;;5.70;99.90;;;;;;5000152;28;20474;-67
2021/12/05 15:19:45;;;;;;;8.50;5.00;;;5.60;99.90;;;;;;4985505;28;20429;-69
2021/12/05 15:22:12;;;;;;;1.97;1.77;;;5.60;99.90;;;;;;4998640;28;20439;-69
2021/12/05 15:24:39;;;;;;;4.03;2.60;;;5.50;99.90;;;;;;4989189;28;20462;-69
2021/12/05 15:27:12;;;;;;;3.30;2.90;;;5.50;99.90;;;;;;4992123;28;20476;-68
2021/12/05 15:29:38;;;;;;;5.30;4.43;;;5.50;99.90;;;;;;4999581;28;20871;-69
2021/12/05 15:32:04;;;;;;;4.87;3.63;;;5.40;99.90;;;;;;4997085;28;20748;-69
2021/12/05 15:34:33;;;;;;;4.13;3.17;;;5.40;99.90;;;;;;5005429;28;20441;-69
2021/12/05 15:37:06;;;;;;;3.00;2.70;;;5.40;99.90;;;;;;5005835;28;20469;-67
2021/12/05 15:39:33;;;;;;;3.90;3.50;;;5.40;99.90;;;;;;4989841;28;20422;-68
2021/12/05 15:41:59;;;;;;;4.50;2.43;;;5.30;99.90;;;;;;5000514;28;20437;-69
2021/12/05 15:44:30;;;;;;;4.47;2.97;;;5.30;99.90;;;;;;4992343;28;20443;-69
2021/12/05 15:47:14;;;;;;;9.70;6.30;;;5.30;99.90;;;;;;5004528;28;20478;-68
2021/12/05 15:50:10;;;;;;;6.03;3.73;;;5.40;99.90;;;;;;4987391;28;20431;-68
2021/12/05 15:52:59;;;;;;;8.47;5.40;;;5.40;99.90;;;;;;4984592;28;20450;-68
2021/12/05 15:55:35;;;;;;;8.07;5.40;;;5.40;99.90;;;;;;5001332;28;20439;-69
2021/12/05 15:58:06;;;;;;;5.53;3.90;;;5.40;99.90;;;;;;4989649;28;20425;-69
2021/12/05 16:00:41;;;;;;;5.30;3.30;;;5.40;99.90;;;;;;4989718;28;20450;-68
2021/12/05 16:03:17;;;;;;;8.50;4.60;;;5.40;99.90;;;;;;4997902;28;20433;-68
2021/12/05 16:05:44;;;;;;;7.10;5.30;;;5.40;99.90;;;;;;4995519;28;20426;-69
2021/12/05 16:08:12;;;;;;;7.70;5.57;;;5.30;99.90;;;;;;5003378;28;20438;-68
2021/12/05 16:10:44;;;;;;;9.83;6.90;;;5.30;99.90;;;;;;4989250;28;21089;-68
2021/12/05 16:13:13;;;;;;;10.60;8.07;;;5.20;99.90;;;;;;4999496;28;20882;-67
2021/12/05 16:15:41;;;;;;;9.60;5.80;;;5.20;99.90;;;;;;5008083;28;20433;-69
2021/12/05 16:18:07;;;;;;;7.77;6.97;;;5.10;99.90;;;;;;4995737;28;20440;-68
2021/12/05 16:20:47;;;;;;;10.00;7.07;;;4.90;99.90;;;;;;5001269;28;20446;-68
2021/12/05 16:23:20;;;;;;;8.80;6.53;;;4.80;99.90;;;;;;5008885;28;20462;-68
2021/12/05 16:25:56;;;;;;;10.30;7.33;;;4.80;99.90;;;;;;4989744;28;21020;-67
2021/12/05 16:28:29;;;;;;;9.90;8.50;;;4.90;99.90;;;;;;4984796;28;20446;-72
2021/12/05 16:31:30;;;;;;;10.10;8.70;;;4.90;99.90;;;;;;5001850;28;20802;-72
2021/12/05 16:34:08;;;;;;;6.03;5.43;;;4.90;99.90;;;;;;4972416;28;20450;-68
2021/12/05 16:36:38;;;;;;;9.57;8.63;;;5.00;99.90;;;;;;4988390;28;20508;-70
2021/12/05 16:39:36;;;;;;;29.03;20.80;;;5.00;99.90;;;;;;5004814;28;20433;-69
2021/12/05 16:42:18;;;;;;;13.00;10.40;;;5.00;99.90;;;;;;4988725;28;20542;-69
2021/12/05 16:44:56;;;;;;;10.97;8.60;;;4.90;99.90;;;;;;4988987;28;20445;-69
2021/12/05 16:47:30;;;;;;;7.53;6.63;;;4.80;99.90;;;;;;4990182;28;20454;-69
2021/12/05 16:49:58;;;;;;;7.87;5.97;;;4.70;99.90;;;;;;5008319;28;20429;-69
2021/12/05 16:52:29;;;;;;;7.13;6.00;;;4.70;99.90;;;;;;4994849;28;20431;-68
2021/12/05 16:55:09;;;;;;;9.93;6.20;;;4.80;99.90;;;;;;4988377;28;20442;-69
2021/12/05 16:57:43;;;;;;;5.97;4.97;;;4.70;99.90;;;;;;4990208;28;20991;-68
2021/12/05 17:00:10;;;;;;;6.77;5.93;;;4.80;99.90;;;;;;4988279;28;20466;-69
2021/12/05 17:02:47;;;;;;;8.50;5.27;;;4.90;99.90;;;;;;4987104;28;20454;-66
2021/12/05 17:05:20;;;;;;;5.33;4.80;;;4.90;99.90;;;;;;4990165;28;20442;-67
2021/12/05 17:08:06;;;;;;;5.53;5.00;;;4.90;99.90;;;;;;4993416;28;20469;-69
2021/12/05 17:11:00;;;;;;;8.07;7.30;;;4.80;99.90;;;;;;4990665;28;20451;-69
2021/12/05 17:13:32;;;;;;;6.53;5.20;;;4.70;99.90;;;;;;4977283;28;20455;-67
2021/12/05 17:16:22;;;;;;;6.00;5.13;;;4.60;99.90;;;;;;4987420;28;20458;-70
2021/12/05 17:18:58;;;;;;;9.30;5.60;;;4.40;99.90;;;;;;4988409;28;20441;-70
2021/12/05 17:21:33;;;;;;;6.60;5.90;;;4.40;99.90;;;;;;4988344;28;20811;-71
2021/12/05 17:24:05;;;;;;;8.00;5.90;;;4.50;99.90;;;;;;4999792;28;20426;-70
2021/12/05 17:26:37;;;;;;;6.03;4.80;;;4.40;99.90;;;;;;4995416;28;20477;-70
2021/12/05 17:29:17;;;;;;;5.70;4.67;;;4.30;99.90;;;;;;4999530;28;20583;-70
2021/12/05 17:31:50;;;;;;;5.50;4.87;;;4.20;99.90;;;;;;4995971;28;20443;-69
2021/12/05 17:34:26;;;;;;;5.87;4.40;;;4.20;99.90;;;;;;5002431;28;20454;-70
2021/12/05 17:36:58;;;;;;;4.60;4.17;;;4.10;99.90;;;;;;4986299;28;20466;-69
2021/12/05 17:39:27;;;;;;;6.03;5.43;;;4.20;99.90;;;;;;4993295;28;20450;-66
2021/12/05 17:41:59;;;;;;;6.23;4.37;;;4.10;99.90;;;;;;4992862;28;20474;-69
2021/12/05 17:44:26;;;;;;;7.00;5.13;;;4.20;99.90;;;;;;4993021;28;20434;-70
2021/12/05 17:46:54;;;;;;;6.83;5.33;;;4.20;99.90;;;;;;4985886;28;20885;-70
2021/12/05 17:49:23;;;;;;;13.63;5.20;;;4.10;99.90;;;;;;4980732;28;20963;-69
2021/12/05 17:51:49;;;;;;;5.40;4.30;;;4.20;99.90;;;;;;5004060;28;20495;-69
2021/12/05 17:54:31;;;;;;;5.60;5.10;;;4.20;99.90;;;;;;4994239;28;20662;-73
2021/12/05 17:57:04;;;;;;;6.13;5.57;;;4.30;99.90;;;;;;4990315;28;20298;-70
2021/12/05 17:59:46;;;;;;;6.30;5.20;;;4.20;99.90;;;;;;4991543;28;20492;-68
2021/12/05 18:04:58;;;;;;;6.13;5.53;;;4.20;99.90;;;;;;4997132;28;20479;-70
2021/12/05 18:07:23;;;;;;;6.13;5.53;;;4.10;99.90;;;;;;5000247;28;21056;-72
2021/12/05 18:09:49;;;;;;;10.07;8.67;;;4.10;99.90;;;;;;5003370;28;20211;-72
2021/12/05 18:12:21;;;;;;;6.00;5.50;;;4.10;99.90;;;;;;4994324;28;20619;-72
2021/12/05 18:14:52;;;;;;;6.50;5.43;;;3.90;99.90;;;;;;4999329;28;20171;-70
2021/12/05 18:17:19;;;;;;;8.33;4.60;;;3.80;99.90;;;;;;4998449;28;20441;-72
2021/12/05 18:19:45;;;;;;;6.03;5.23;;;3.80;99.90;;;;;;5004793;28;20425;-72
2021/12/05 18:22:11;;;;;;;5.93;5.43;;;3.90;99.90;;;;;;4994274;28;20430;-72
2021/12/05 18:24:37;;;;;;;12.83;11.40;;;3.90;99.90;;;;;;5003913;28;20450;-72
2021/12/05 18:27:03;;;;;;;16.00;14.40;;;3.80;99.90;;;;;;4996238;28;20520;-71
2021/12/05 18:29:29;;;;;;;11.90;10.77;;;3.70;99.90;;;;;;5013302;28;20436;-69
2021/12/05 18:31:56;;;;;;;9.50;8.60;;;3.60;99.90;;;;;;5004448;28;20434;-72
2021/12/05 18:34:27;;;;;;;11.40;10.20;;;3.60;99.90;;;;;;4998953;28;20543;-72
2021/12/05 18:36:56;;;;;;;10.93;9.80;;;3.60;99.90;;;;;;4999045;28;20490;-76
2021/12/05 18:39:29;;;;;;;12.57;11.23;;;3.60;99.90;;;;;;4996577;28;20441;-75
2021/12/05 18:41:59;;;;;;;14.23;12.13;;;3.60;99.90;;;;;;4983775;28;20980;-70
2021/12/05 18:44:29;;;;;;;11.93;10.83;;;3.60;99.90;;;;;;5005143;28;20749;-73
2021/12/05 18:46:56;;;;;;;12.03;10.87;;;3.60;99.90;;;;;;4994006;28;20818;-72
2021/12/05 18:49:27;;;;;;;9.80;8.80;;;3.70;99.90;;;;;;4994069;28;20505;-72
2021/12/05 18:51:54;;;;;;;12.10;10.90;;;3.70;99.90;;;;;;5000731;28;20524;-71